Time;durP1;ratioP1;P1;durP2;ratioP2;P2;SDS_P1;SDS_P2;PMS_P1;PMS_P2;Temp;Humidity;BMP_temperature;BMP_pressure;BME280_temperature;BME280_humidity;BME280_pressure;Samples;Min_cycle;Max_cycle;Signal;HPM_P1;HPM_P2
2022/05/02 00:02:05;;;;;;;3.75;3.42;;;16.70;54.80;;;;;;5092739;28;20194;-71
2022/05/02 00:04:31;;;;;;;3.83;3.53;;;16.70;54.80;;;;;;5090925;28;20227;-69
2022/05/02 00:06:56;;;;;;;4.10;3.80;;;16.70;54.80;;;;;;5092236;28;20174;-68
2022/05/02 00:09:21;;;;;;;4.07;3.38;;;16.70;54.80;;;;;;5092407;28;20536;-68
2022/05/02 00:11:50;;;;;;;3.72;3.42;;;16.70;54.80;;;;;;5091330;28;20193;-68
2022/05/02 00:14:15;;;;;;;4.10;3.80;;;16.70;54.80;;;;;;5092613;28;20177;-68
2022/05/02 00:16:41;;;;;;;3.85;3.55;;;16.70;54.80;;;;;;5092108;28;20174;-68
2022/05/02 00:19:06;;;;;;;3.95;3.65;;;16.70;54.80;;;;;;5091763;28;20515;-68
2022/05/02 00:21:32;;;;;;;3.97;3.50;;;16.70;54.80;;;;;;5092324;28;20176;-68
2022/05/02 00:23:57;;;;;;;3.22;3.00;;;16.70;54.80;;;;;;5091888;28;20574;-68
2022/05/02 00:26:23;;;;;;;3.58;3.25;;;16.70;54.80;;;;;;5091423;28;20177;-69
2022/05/02 00:28:48;;;;;;;3.55;3.35;;;16.70;54.90;;;;;;5091973;28;20170;-68
2022/05/02 00:31:14;;;;;;;4.63;3.20;;;16.70;54.80;;;;;;5092014;28;20177;-69
2022/05/02 00:33:39;;;;;;;3.85;3.55;;;16.70;54.80;;;;;;5090981;28;20594;-69
2022/05/02 00:36:05;;;;;;;3.72;3.42;;;16.60;54.80;;;;;;5091887;28;20174;-69
2022/05/02 00:38:30;;;;;;;3.95;3.55;;;16.70;54.80;;;;;;5090372;28;20185;-69
2022/05/02 00:40:56;;;;;;;3.65;3.35;;;16.70;54.80;;;;;;5091122;28;20210;-69
2022/05/02 00:43:21;;;;;;;3.65;3.42;;;16.60;54.70;;;;;;5091960;28;20382;-69
2022/05/02 00:45:47;;;;;;;3.63;3.38;;;16.60;54.80;;;;;;5091482;28;20620;-68
2022/05/02 00:48:12;;;;;;;4.03;3.63;;;16.60;54.70;;;;;;5091114;28;20193;-68
2022/05/02 00:50:40;;;;;;;3.47;3.28;;;16.60;54.70;;;;;;5091570;28;20170;-68
2022/05/02 00:53:08;;;;;;;4.05;3.67;;;16.60;54.80;;;;;;5090931;28;20169;-68
2022/05/02 00:55:33;;;;;;;3.58;3.22;;;16.60;54.70;;;;;;5091957;28;20260;-69
2022/05/02 00:57:59;;;;;;;3.90;3.38;;;16.60;54.80;;;;;;5091157;28;20555;-70
2022/05/02 01:00:28;;;;;;;4.00;3.70;;;16.60;54.80;;;;;;5091056;28;20589;-71
2022/05/02 01:02:54;;;;;;;3.35;3.15;;;16.60;54.80;;;;;;5091282;28;20174;-70
2022/05/02 01:05:19;;;;;;;3.58;3.28;;;16.60;54.80;;;;;;5093797;28;20181;-69
2022/05/02 01:07:46;;;;;;;3.80;3.50;;;16.60;54.80;;;;;;5097374;28;20188;-68
2022/05/02 01:10:16;;;;;;;4.00;3.70;;;16.60;54.80;;;;;;5098427;28;20177;-68
2022/05/02 01:12:42;;;;;;;3.47;3.20;;;16.60;54.70;;;;;;5097048;28;20173;-68
2022/05/02 01:15:08;;;;;;;3.45;3.15;;;16.60;54.80;;;;;;5097675;28;20177;-68
2022/05/02 01:17:40;;;;;;;3.67;3.17;;;16.60;54.70;;;;;;5098357;28;20178;-68
2022/05/02 01:20:07;;;;;;;3.63;3.33;;;16.50;54.70;;;;;;5098387;28;20230;-68
2022/05/02 01:22:32;;;;;;;3.92;3.63;;;16.50;54.70;;;;;;5097438;28;20177;-68
2022/05/02 01:24:58;;;;;;;3.97;3.67;;;16.60;54.70;;;;;;5097934;28;20704;-68
2022/05/02 01:27:23;;;;;;;4.13;3.83;;;16.50;54.70;;;;;;5098372;28;20226;-69
2022/05/02 01:29:49;;;;;;;3.83;3.45;;;16.50;54.70;;;;;;5097324;28;20221;-68
2022/05/02 01:32:15;;;;;;;3.60;3.30;;;16.50;54.70;;;;;;5098337;28;20165;-69
2022/05/02 01:34:40;;;;;;;3.05;2.85;;;16.50;54.70;;;;;;5098019;28;20506;-69
2022/05/02 01:37:06;;;;;;;4.25;3.85;;;16.50;54.70;;;;;;5097437;28;20486;-69
2022/05/02 01:39:32;;;;;;;4.18;3.88;;;16.50;54.70;;;;;;5098071;28;20652;-68
2022/05/02 01:42:05;;;;;;;3.35;3.05;;;16.50;54.70;;;;;;5097738;28;20216;-69
2022/05/02 01:44:30;;;;;;;3.65;3.35;;;16.50;54.70;;;;;;5097342;28;20220;-69
2022/05/02 01:46:56;;;;;;;3.75;3.45;;;16.50;54.70;;;;;;5097727;28;20173;-68
2022/05/02 01:49:21;;;;;;;3.53;3.30;;;16.50;54.70;;;;;;5097270;28;20593;-68
2022/05/02 01:51:47;;;;;;;3.70;3.05;;;16.50;54.80;;;;;;5098040;28;20176;-68
2022/05/02 01:54:13;;;;;;;3.83;3.53;;;16.50;54.70;;;;;;5098104;28;20205;-68
2022/05/02 01:56:38;;;;;;;3.95;3.65;;;16.50;54.70;;;;;;5097162;28;20174;-70
2022/05/02 01:59:04;;;;;;;3.80;3.50;;;16.50;54.70;;;;;;5097842;28;20225;-71
2022/05/02 02:01:33;;;;;;;3.08;2.88;;;16.50;54.80;;;;;;5098031;28;20190;-71
2022/05/02 02:05:48;;;;;;;3.83;3.42;;;16.40;54.70;;;;;;5096868;28;20251;-70
2022/05/02 02:06:47;;;;;;;3.58;3.28;;;16.40;54.70;;;;;;5097640;28;20193;-69
2022/05/02 02:09:12;;;;;;;3.92;3.63;;;16.40;54.70;;;;;;5098103;28;20260;-68
2022/05/02 02:11:38;;;;;;;3.80;3.50;;;16.40;54.70;;;;;;5096878;28;20173;-68
2022/05/02 02:14:03;;;;;;;3.83;3.40;;;16.50;54.70;;;;;;5097951;28;20177;-68
2022/05/02 02:16:29;;;;;;;3.92;3.63;;;16.40;54.70;;;;;;5096956;28;20204;-69
2022/05/02 02:18:54;;;;;;;3.63;3.33;;;16.40;54.70;;;;;;5093601;28;20186;-68
2022/05/02 02:21:20;;;;;;;4.05;3.75;;;16.40;54.70;;;;;;5094763;28;20504;-68
2022/05/02 02:23:46;;;;;;;3.78;3.47;;;16.40;54.70;;;;;;5094543;28;20229;-68
2022/05/02 02:26:11;;;;;;;3.40;3.10;;;16.40;54.70;;;;;;5093875;28;20261;-68
2022/05/02 02:28:38;;;;;;;3.67;3.40;;;16.40;54.70;;;;;;5094363;28;20177;-69
2022/05/02 02:31:03;;;;;;;3.20;3.00;;;16.40;54.70;;;;;;5094705;28;20654;-69
2022/05/02 02:33:29;;;;;;;3.20;3.00;;;16.40;54.70;;;;;;5094298;28;20276;-70
2022/05/02 02:35:54;;;;;;;3.45;3.15;;;16.40;54.70;;;;;;5094641;28;20694;-69
2022/05/02 02:38:20;;;;;;;3.72;3.42;;;16.40;54.70;;;;;;5094504;28;20617;-69
2022/05/02 02:40:45;;;;;;;3.25;3.05;;;16.40;54.70;;;;;;5093596;28;20173;-69
2022/05/02 02:43:11;;;;;;;3.65;3.35;;;16.40;54.70;;;;;;5094425;28;20190;-69
2022/05/02 02:45:37;;;;;;;3.30;3.08;;;16.40;54.70;;;;;;5093270;28;20174;-69
2022/05/02 02:48:03;;;;;;;3.08;2.88;;;16.40;54.70;;;;;;5094670;28;20197;-68
2022/05/02 02:50:28;;;;;;;3.92;3.67;;;16.40;54.70;;;;;;5094527;28;20190;-69
2022/05/02 02:52:54;;;;;;;3.58;3.38;;;16.40;54.70;;;;;;5093264;28;20198;-68
2022/05/02 02:55:19;;;;;;;4.10;3.80;;;16.40;54.70;;;;;;5094382;28;20264;-69
2022/05/02 02:57:45;;;;;;;3.60;3.40;;;16.30;54.60;;;;;;5093673;28;20173;-70
2022/05/02 03:00:11;;;;;;;3.70;3.47;;;16.30;54.70;;;;;;5093451;28;20541;-72
2022/05/02 03:02:40;;;;;;;3.42;3.13;;;16.30;54.70;;;;;;5093656;28;20609;-70
2022/05/02 03:07:50;;;;;;;3.50;3.20;;;16.30;54.70;;;;;;5093081;28;20534;-68
2022/05/02 03:10:16;;;;;;;4.03;3.72;;;16.30;55.30;;;;;;5094185;28;20177;-68
2022/05/02 03:12:41;;;;;;;4.10;3.80;;;16.30;54.70;;;;;;5094251;28;20185;-68
2022/05/02 03:15:07;;;;;;;3.67;3.38;;;16.30;54.70;;;;;;5093209;28;20201;-68
2022/05/02 03:17:33;;;;;;;3.70;3.40;;;16.30;54.70;;;;;;5093819;28;20178;-68
2022/05/02 03:19:58;;;;;;;4.05;3.75;;;16.30;54.70;;;;;;5093713;28;20184;-68
2022/05/02 03:22:24;;;;;;;4.05;3.72;;;16.30;54.70;;;;;;5093134;28;20169;-68
2022/05/02 03:24:49;;;;;;;3.53;3.28;;;16.30;54.70;;;;;;5093334;28;20213;-68
2022/05/02 03:27:15;;;;;;;4.15;3.85;;;16.30;54.70;;;;;;5093595;28;20600;-69
2022/05/02 03:29:40;;;;;;;3.53;3.33;;;16.30;54.70;;;;;;5091775;28;20194;-68
2022/05/02 03:32:06;;;;;;;4.22;3.30;;;16.30;54.70;;;;;;5093844;28;20573;-69
2022/05/02 03:34:31;;;;;;;4.22;3.92;;;16.20;54.60;;;;;;5093505;28;20186;-68
2022/05/02 03:36:57;;;;;;;3.90;3.60;;;16.20;54.60;;;;;;5092495;28;20208;-69
2022/05/02 03:39:22;;;;;;;3.38;3.05;;;16.20;54.60;;;;;;5093496;28;20174;-69
2022/05/02 03:41:49;;;;;;;3.60;3.30;;;16.20;54.60;;;;;;5092348;28;20166;-69
2022/05/02 03:44:15;;;;;;;3.72;3.42;;;16.20;54.60;;;;;;5093045;28;20582;-69
2022/05/02 03:46:40;;;;;;;3.50;3.30;;;16.20;54.60;;;;;;5093215;28;20180;-68
2022/05/02 03:49:06;;;;;;;3.90;3.60;;;16.30;54.70;;;;;;5093184;28;20182;-68
2022/05/02 03:51:31;;;;;;;3.95;3.65;;;16.20;54.60;;;;;;5093254;28;20174;-68
2022/05/02 03:53:57;;;;;;;3.65;3.35;;;16.20;54.60;;;;;;5092843;28;20185;-68
2022/05/02 03:56:22;;;;;;;3.63;3.40;;;16.30;54.70;;;;;;5092326;28;20177;-69
2022/05/02 03:58:48;;;;;;;3.63;3.33;;;16.20;54.60;;;;;;5092752;28;20225;-70
2022/05/02 04:01:13;;;;;;;3.53;3.22;;;16.20;54.60;;;;;;5092885;28;20174;-70
2022/05/02 04:03:39;;;;;;;3.55;3.35;;;16.20;54.60;;;;;;5091909;28;20672;-69
2022/05/02 04:06:05;;;;;;;3.55;3.25;;;16.20;54.60;;;;;;5092911;28;20643;-70
2022/05/02 04:08:30;;;;;;;3.60;3.40;;;16.20;54.60;;;;;;5092988;28;20210;-68
2022/05/02 04:10:56;;;;;;;3.90;3.60;;;16.20;54.60;;;;;;5091743;28;20170;-69
2022/05/02 04:13:21;;;;;;;3.65;3.40;;;16.20;54.70;;;;;;5092779;28;20170;-68
2022/05/02 04:15:47;;;;;;;3.50;3.30;;;16.20;54.60;;;;;;5092682;28;20169;-68
2022/05/02 04:18:12;;;;;;;3.67;3.38;;;16.20;54.60;;;;;;5092214;28;20661;-70
2022/05/02 04:20:38;;;;;;;3.83;3.53;;;16.20;54.60;;;;;;5092327;28;20603;-68
2022/05/02 04:23:03;;;;;;;3.78;3.47;;;16.20;54.60;;;;;;5092555;28;20257;-68
2022/05/02 04:25:29;;;;;;;3.78;3.47;;;16.20;54.60;;;;;;5091908;28;20173;-68
2022/05/02 04:27:54;;;;;;;3.92;3.55;;;16.20;54.60;;;;;;5092040;28;20264;-68
2022/05/02 04:30:20;;;;;;;3.75;3.45;;;16.20;54.60;;;;;;5092307;28;20186;-71
2022/05/02 04:32:45;;;;;;;3.72;3.53;;;16.20;54.70;;;;;;5090299;28;20571;-70
2022/05/02 04:35:11;;;;;;;3.50;3.30;;;16.10;54.60;;;;;;5092315;28;20182;-69
2022/05/02 04:37:45;;;;;;;3.97;3.67;;;16.10;54.60;;;;;;5092094;28;20615;-69
2022/05/02 04:40:11;;;;;;;4.20;3.90;;;16.20;54.60;;;;;;5091076;28;20177;-69
2022/05/02 04:42:37;;;;;;;3.60;3.40;;;16.10;54.60;;;;;;5091855;28;20178;-70
2022/05/02 04:45:03;;;;;;;3.20;3.00;;;16.20;54.60;;;;;;5091755;28;20217;-70
2022/05/02 04:47:29;;;;;;;3.40;3.10;;;16.10;54.60;;;;;;5092101;28;20534;-68
2022/05/02 04:49:54;;;;;;;3.90;3.60;;;16.20;55.30;;;;;;5091850;28;20174;-68
2022/05/02 04:52:20;;;;;;;3.55;3.25;;;16.20;54.60;;;;;;5091341;28;20227;-69
2022/05/02 04:54:45;;;;;;;3.58;3.30;;;16.20;54.60;;;;;;5091171;28;20474;-69
2022/05/02 04:57:11;;;;;;;3.47;3.28;;;16.10;55.20;;;;;;5092155;28;20336;-70
2022/05/02 04:59:37;;;;;;;3.70;3.40;;;16.20;54.60;;;;;;5090582;28;20315;-70
2022/05/02 05:02:04;;;;;;;3.33;3.08;;;16.20;54.60;;;;;;5091899;28;20170;-71
2022/05/02 05:04:29;;;;;;;4.10;3.80;;;16.20;54.50;;;;;;5091778;28;20274;-69
2022/05/02 05:06:55;;;;;;;3.58;3.28;;;16.20;54.70;;;;;;5090708;28;20169;-69
2022/05/02 05:09:20;;;;;;;3.85;3.55;;;16.20;54.50;;;;;;5091621;28;20212;-68
2022/05/02 05:12:08;;;;;;;3.95;3.65;;;16.10;54.50;;;;;;5091610;28;20257;-68
2022/05/02 05:18:04;;;;;;;3.78;3.47;;;16.10;54.50;;;;;;5091734;28;20200;-68
2022/05/02 05:21:05;;;;;;;3.42;3.22;;;16.20;54.50;;;;;;5091086;28;20217;-69
2022/05/02 05:23:57;;;;;;;3.40;3.10;;;16.20;54.50;;;;;;5029213;28;20203;-68
2022/05/02 05:26:26;;;;;;;3.53;3.33;;;16.20;54.50;;;;;;5088721;28;20205;-69
2022/05/02 05:28:57;;;;;;;4.20;3.90;;;16.20;54.50;;;;;;5090754;28;20197;-68
2022/05/02 05:31:32;;;;;;;3.33;3.13;;;16.20;54.50;;;;;;5090309;28;20210;-69
2022/05/02 05:34:08;;;;;;;3.53;3.22;;;16.20;54.50;;;;;;5091175;28;20517;-70
2022/05/02 05:37:05;;;;;;;4.28;3.88;;;16.20;54.40;;;;;;5090561;28;20569;-69
2022/05/02 05:40:05;;;;;;;3.20;3.00;;;16.20;54.40;;;;;;5070155;28;20231;-69
2022/05/02 05:42:55;;;;;;;3.55;3.25;;;16.20;54.40;;;;;;5090057;28;20182;-69
2022/05/02 05:45:41;;;;;;;3.45;3.15;;;16.20;54.40;;;;;;5091574;28;20193;-70
2022/05/02 05:48:36;;;;;;;3.67;3.40;;;16.20;54.50;;;;;;5080572;28;20186;-69
2022/05/02 05:51:34;;;;;;;3.67;3.38;;;16.20;54.40;;;;;;5090035;28;20605;-68
2022/05/02 05:54:06;;;;;;;3.38;3.08;;;16.20;54.40;;;;;;5095069;28;20205;-69
2022/05/02 05:56:47;;;;;;;3.65;3.35;;;16.20;54.40;;;;;;5094431;28;20197;-71
2022/05/02 05:59:40;;;;;;;3.08;2.88;;;16.20;54.40;;;;;;5093730;28;20654;-71
2022/05/02 06:02:06;;;;;;;2.97;2.78;;;16.20;54.40;;;;;;5093886;28;20261;-72
2022/05/02 06:04:34;;;;;;;3.67;3.40;;;16.30;54.40;;;;;;5092770;28;20700;-70
2022/05/02 06:07:00;;;;;;;3.17;2.97;;;16.20;54.30;;;;;;5095248;28;20201;-68
2022/05/02 06:09:29;;;;;;;3.08;2.88;;;16.30;54.30;;;;;;5094817;28;20181;-68
2022/05/02 06:11:57;;;;;;;3.38;3.13;;;16.40;54.40;;;;;;5094528;28;20173;-69
2022/05/02 06:14:27;;;;;;;3.00;2.80;;;16.40;54.40;;;;;;5093755;28;20177;-69
2022/05/02 06:19:38;;;;;;;2.80;2.60;;;16.60;54.20;;;;;;5094861;28;20238;-69
2022/05/02 06:22:04;;;;;;;2.95;2.75;;;16.80;54.10;;;;;;5093388;28;20264;-69
2022/05/02 06:24:31;;;;;;;2.80;2.60;;;16.90;54.00;;;;;;5092474;28;20205;-69
2022/05/02 06:26:57;;;;;;;2.80;2.60;;;17.00;53.70;;;;;;5094471;28;20225;-68
2022/05/02 06:29:23;;;;;;;3.08;2.88;;;17.20;53.70;;;;;;5093407;28;20202;-69
2022/05/02 06:31:50;;;;;;;3.08;2.88;;;17.40;53.40;;;;;;5093860;28;20174;-69
2022/05/02 06:34:28;;;;;;;2.60;2.50;;;17.50;53.10;;;;;;5093279;28;20184;-69
2022/05/02 06:37:13;;;;;;;2.70;2.50;;;17.80;53.10;;;;;;5094039;28;20483;-69
2022/05/02 06:39:45;;;;;;;2.20;2.10;;;18.10;52.40;;;;;;5092318;28;20177;-70
2022/05/02 06:42:19;;;;;;;4.20;3.03;;;18.20;52.10;;;;;;5094361;28;20621;-69
2022/05/02 06:45:01;;;;;;;5.80;2.80;;;18.20;51.90;;;;;;5092074;28;20220;-70
2022/05/02 06:47:53;;;;;;;3.15;2.70;;;18.40;51.80;;;;;;5094111;28;20178;-69
2022/05/02 06:50:21;;;;;;;3.97;2.72;;;18.60;51.70;;;;;;5094180;28;20239;-68
2022/05/02 06:53:06;;;;;;;4.70;2.83;;;18.70;51.50;;;;;;5091836;28;20303;-72
2022/05/02 06:55:54;;;;;;;5.68;2.97;;;18.70;51.60;;;;;;5094027;28;20177;-73
2022/05/02 06:58:56;;;;;;;5.57;2.88;;;18.60;51.70;;;;;;5092979;28;20226;-69
2022/05/02 07:01:39;;;;;;;3.72;3.13;;;18.60;51.90;;;;;;5094181;28;20665;-72
2022/05/02 07:04:29;;;;;;;4.97;2.78;;;18.60;52.10;;;;;;5093527;28;20227;-79
2022/05/02 07:07:25;;;;;;;5.00;2.38;;;18.60;52.10;;;;;;5092949;28;20196;-71
2022/05/02 07:10:00;;;;;;;8.77;3.42;;;18.60;52.10;;;;;;5092279;28;20605;-72
2022/05/02 07:12:26;;;;;;;6.00;2.97;;;18.50;52.10;;;;;;5093696;28;20173;-71
2022/05/02 07:15:36;;;;;;;4.93;2.85;;;18.40;52.00;;;;;;5091287;28;20526;-71
2022/05/02 07:18:12;;;;;;;3.88;2.90;;;18.30;52.20;;;;;;5051250;28;20222;-72
2022/05/02 07:21:15;;;;;;;3.70;2.63;;;18.20;52.40;;;;;;5050301;28;20174;-71
2022/05/02 07:23:46;;;;;;;3.78;2.83;;;18.10;52.60;;;;;;5084399;28;20256;-72
2022/05/02 07:26:13;;;;;;;3.75;2.80;;;18.00;52.80;;;;;;5092608;28;20174;-71
2022/05/02 07:28:49;;;;;;;3.45;2.75;;;18.00;53.00;;;;;;5092513;28;20181;-69
2022/05/02 07:31:18;;;;;;;4.22;3.00;;;17.90;53.20;;;;;;5093371;28;20211;-68
2022/05/02 07:33:45;;;;;;;3.42;2.60;;;17.90;53.60;;;;;;5093279;28;20170;-69
2022/05/02 07:36:13;;;;;;;3.20;2.90;;;18.00;53.70;;;;;;5091175;28;20672;-69
2022/05/02 07:38:39;;;;;;;3.67;3.28;;;18.00;53.70;;;;;;5091870;28;20277;-68
2022/05/02 07:41:23;;;;;;;2.97;2.67;;;18.00;53.60;;;;;;5091343;28;20264;-68
2022/05/02 07:43:50;;;;;;;3.75;2.55;;;18.00;53.60;;;;;;5092793;28;20270;-69
2022/05/02 07:46:25;;;;;;;4.47;2.45;;;18.00;53.70;;;;;;5093265;28;20225;-69
2022/05/02 07:48:52;;;;;;;4.18;2.55;;;18.00;53.80;;;;;;5092310;28;20185;-69
2022/05/02 07:51:17;;;;;;;3.10;2.80;;;18.00;53.90;;;;;;5093129;28;20189;-71
2022/05/02 07:53:43;;;;;;;4.40;3.00;;;18.00;53.90;;;;;;5091605;28;20177;-70
2022/05/02 07:56:09;;;;;;;4.78;3.10;;;18.00;54.00;;;;;;5092074;28;20557;-71
2022/05/02 07:58:35;;;;;;;3.15;2.10;;;18.00;54.00;;;;;;5092733;28;20684;-68
2022/05/02 08:01:00;;;;;;;4.35;2.53;;;18.10;54.00;;;;;;5091895;28;20196;-68
2022/05/02 08:03:27;;;;;;;2.72;2.53;;;18.10;53.90;;;;;;5092003;28;20640;-68
2022/05/02 08:05:55;;;;;;;3.83;2.88;;;18.10;53.90;;;;;;5092695;28;20182;-70
2022/05/02 08:08:34;;;;;;;3.33;2.60;;;18.10;53.90;;;;;;5091486;28;20184;-70
2022/05/02 08:11:22;;;;;;;5.30;2.90;;;18.00;53.90;;;;;;5092269;28;20504;-71
2022/05/02 08:14:01;;;;;;;2.80;2.60;;;18.10;54.00;;;;;;5090965;28;20711;-71
2022/05/02 08:16:26;;;;;;;2.42;2.22;;;18.00;54.60;;;;;;5090113;28;20177;-69
2022/05/02 08:19:17;;;;;;;2.95;2.60;;;18.00;54.10;;;;;;5090963;28;20202;-69
2022/05/02 08:21:49;;;;;;;3.55;2.40;;;18.10;54.10;;;;;;5092417;28;20181;-70
2022/05/02 08:27:26;;;;;;;2.47;2.30;;;18.10;54.00;;;;;;5092087;28;20227;-71
2022/05/02 08:30:11;;;;;;;2.70;2.50;;;18.10;53.90;;;;;;5092183;28;20173;-70
2022/05/02 08:32:44;;;;;;;4.18;2.90;;;18.10;53.90;;;;;;5090959;28;20260;-68
2022/05/02 08:35:12;;;;;;;2.65;2.45;;;18.10;53.90;;;;;;5091231;28;20178;-68
2022/05/02 08:38:05;;;;;;;2.88;2.40;;;18.10;53.90;;;;;;5091308;28;20209;-68
2022/05/02 08:40:58;;;;;;;3.10;2.33;;;18.10;54.00;;;;;;5091163;28;20205;-68
2022/05/02 08:43:42;;;;;;;3.53;2.80;;;18.10;54.00;;;;;;5090958;28;20297;-69
2022/05/02 08:46:22;;;;;;;2.92;2.63;;;18.10;54.10;;;;;;5091373;28;20303;-70
2022/05/02 08:49:35;;;;;;;2.95;2.20;;;18.00;54.10;;;;;;5091911;28;20181;-69
2022/05/02 08:52:06;;;;;;;3.10;2.80;;;18.00;54.10;;;;;;5090248;28;20260;-71
2022/05/02 08:54:38;;;;;;;3.17;2.33;;;18.00;54.10;;;;;;5092007;28;20174;-69
2022/05/02 08:57:41;;;;;;;3.00;2.70;;;18.00;54.10;;;;;;5092112;28;20178;-69
2022/05/02 09:00:41;;;;;;;3.20;2.50;;;18.00;54.10;;;;;;5091051;28;20225;-70
2022/05/02 09:03:10;;;;;;;3.83;2.83;;;18.10;54.10;;;;;;5068286;28;20201;-69
2022/05/02 09:05:45;;;;;;;3.05;2.47;;;18.10;54.10;;;;;;5091115;28;20170;-68
2022/05/02 09:08:41;;;;;;;2.80;2.60;;;18.10;54.10;;;;;;5092501;28;20199;-70
2022/05/02 09:11:31;;;;;;;2.63;2.42;;;18.10;54.00;;;;;;5091913;28;20182;-72
2022/05/02 09:14:34;;;;;;;3.08;2.78;;;18.10;54.00;;;;;;5091060;28;20177;-72
2022/05/02 09:17:33;;;;;;;3.00;2.70;;;18.10;54.00;;;;;;5091818;28;20178;-71
2022/05/02 09:20:33;;;;;;;3.53;2.50;;;18.10;53.90;;;;;;5090904;28;20273;-73
2022/05/02 09:23:29;;;;;;;2.45;2.25;;;18.10;53.90;;;;;;5091670;28;20177;-71
2022/05/02 09:26:06;;;;;;;2.70;2.38;;;18.10;53.90;;;;;;5091852;28;20189;-71
2022/05/02 09:28:38;;;;;;;3.30;2.75;;;18.20;53.90;;;;;;5095287;28;20185;-71
2022/05/02 09:31:25;;;;;;;2.70;2.50;;;18.10;53.90;;;;;;5095986;28;20181;-69
2022/05/02 09:34:14;;;;;;;3.13;2.83;;;18.20;53.90;;;;;;5094760;28;20174;-70
2022/05/02 09:37:02;;;;;;;2.78;2.50;;;18.20;53.90;;;;;;5095566;28;20181;-69
2022/05/02 09:39:48;;;;;;;3.35;2.58;;;18.20;53.90;;;;;;5095055;28;20628;-69
2022/05/02 09:42:50;;;;;;;2.83;2.63;;;18.20;53.80;;;;;;5093652;28;20193;-69
2022/05/02 09:51:33;;;;;;;3.53;2.40;;;18.20;53.70;;;;;;5095685;28;20223;-71
2022/05/02 09:54:05;;;;;;;2.75;2.53;;;18.20;53.70;;;;;;5095296;28;20184;-71
2022/05/02 09:56:38;;;;;;;2.88;2.30;;;18.30;53.80;;;;;;5094879;28;20265;-69
2022/05/02 09:59:26;;;;;;;2.97;2.70;;;18.30;53.70;;;;;;5093774;28;20679;-68
2022/05/02 10:02:01;;;;;;;2.83;2.63;;;18.30;54.30;;;;;;5093270;28;20174;-68
2022/05/02 10:04:31;;;;;;;2.95;2.60;;;18.30;53.70;;;;;;5094360;28;20358;-69
2022/05/02 10:07:04;;;;;;;2.60;2.40;;;18.30;53.70;;;;;;5094979;28;20231;-70
2022/05/02 10:09:47;;;;;;;2.45;2.33;;;18.30;53.60;;;;;;5094374;28;20715;-71
2022/05/02 10:12:34;;;;;;;2.30;2.20;;;18.30;53.60;;;;;;5095219;28;20186;-72
2022/05/02 10:15:23;;;;;;;3.00;2.70;;;18.30;53.60;;;;;;5093845;28;20667;-72
2022/05/02 10:18:04;;;;;;;2.88;2.67;;;18.40;53.60;;;;;;5093067;28;20174;-72
2022/05/02 10:20:48;;;;;;;2.85;2.65;;;18.40;53.60;;;;;;5094917;28;20663;-71
2022/05/02 10:23:34;;;;;;;2.92;2.72;;;18.40;53.60;;;;;;5093233;28;20199;-72
2022/05/02 10:26:16;;;;;;;2.72;2.53;;;18.40;53.50;;;;;;5093646;28;20182;-72
2022/05/02 10:28:53;;;;;;;2.75;2.55;;;18.40;53.40;;;;;;5094738;28;20640;-71
2022/05/02 10:31:25;;;;;;;3.08;2.80;;;18.50;53.40;;;;;;5093178;28;20180;-69
2022/05/02 10:33:51;;;;;;;2.92;2.70;;;18.50;53.40;;;;;;5094621;28;20249;-69
2022/05/02 10:36:19;;;;;;;3.00;2.80;;;18.50;53.30;;;;;;5094642;28;20213;-69
2022/05/02 10:38:53;;;;;;;3.65;2.78;;;18.50;53.30;;;;;;5092790;28;20185;-69
2022/05/02 10:41:23;;;;;;;2.90;2.70;;;18.50;53.30;;;;;;5095035;28;20181;-69
2022/05/02 10:43:52;;;;;;;3.20;3.00;;;18.50;53.30;;;;;;5092543;28;20219;-69
2022/05/02 10:46:20;;;;;;;3.28;2.97;;;18.50;53.20;;;;;;5094598;28;20177;-69
2022/05/02 10:49:03;;;;;;;2.80;2.60;;;18.50;53.20;;;;;;5093286;28;20544;-71
2022/05/02 10:51:53;;;;;;;3.03;2.72;;;18.50;53.20;;;;;;5092661;28;20539;-70
2022/05/02 10:54:28;;;;;;;2.85;2.65;;;18.50;53.10;;;;;;5093405;28;20701;-69
2022/05/02 10:56:58;;;;;;;5.47;3.00;;;18.50;53.10;;;;;;5092934;28;20177;-72
2022/05/02 10:59:23;;;;;;;4.38;3.22;;;18.50;53.70;;;;;;5092174;28;20225;-73
2022/05/02 11:02:15;;;;;;;6.13;3.00;;;18.50;53.00;;;;;;5092659;28;20197;-70
2022/05/02 11:05:05;;;;;;;3.17;2.97;;;18.50;52.70;;;;;;5092785;28;20209;-69
2022/05/02 11:07:49;;;;;;;4.30;3.47;;;18.60;52.70;;;;;;5092626;28;20618;-73
2022/05/02 11:10:18;;;;;;;3.45;3.00;;;18.60;52.50;;;;;;5092895;28;20188;-69
2022/05/02 11:13:04;;;;;;;3.95;3.53;;;18.60;52.60;;;;;;5093078;28;20190;-70
2022/05/02 11:15:35;;;;;;;4.05;3.28;;;18.60;52.60;;;;;;5092700;28;20188;-73
2022/05/02 11:18:08;;;;;;;3.83;3.30;;;18.60;52.60;;;;;;5092430;28;20188;-69
2022/05/02 11:20:51;;;;;;;3.35;3.03;;;18.60;52.60;;;;;;5093147;28;20216;-73
2022/05/02 11:23:31;;;;;;;5.97;3.33;;;18.60;52.60;;;;;;5092578;28;20208;-70
2022/05/02 11:26:32;;;;;;;6.82;3.38;;;18.70;52.60;;;;;;5092924;28;20220;-72
2022/05/02 11:29:33;;;;;;;4.20;2.92;;;18.70;52.60;;;;;;5082407;28;20553;-71
2022/05/02 11:32:16;;;;;;;3.95;3.13;;;18.70;52.60;;;;;;5093210;28;20177;-67
2022/05/02 11:34:50;;;;;;;7.18;3.20;;;18.80;52.60;;;;;;5092311;28;20219;-67
2022/05/02 11:37:34;;;;;;;6.00;3.33;;;18.80;52.50;;;;;;5093330;28;20636;-67
2022/05/02 11:40:06;;;;;;;6.28;3.47;;;18.80;52.40;;;;;;5091673;28;20268;-67
2022/05/02 11:42:33;;;;;;;7.70;3.65;;;18.80;52.40;;;;;;5093216;28;20185;-69
2022/05/02 11:45:11;;;;;;;5.20;3.42;;;18.80;52.50;;;;;;5092729;28;20205;-68
2022/05/02 11:47:45;;;;;;;3.97;2.60;;;18.80;52.50;;;;;;5092042;28;20181;-71
2022/05/02 11:50:11;;;;;;;4.25;3.00;;;18.90;52.50;;;;;;5090818;28;20180;-70
2022/05/02 11:52:38;;;;;;;5.13;2.85;;;18.90;52.60;;;;;;5091244;28;20246;-69
2022/05/02 11:55:07;;;;;;;4.18;2.65;;;19.00;52.60;;;;;;5092119;28;20269;-69
2022/05/02 11:57:35;;;;;;;2.78;2.53;;;19.00;52.60;;;;;;5092871;28;20360;-76
2022/05/02 12:00:14;;;;;;;5.18;3.10;;;19.00;52.50;;;;;;5092542;28;20225;-76
2022/05/02 12:02:43;;;;;;;5.43;3.38;;;19.00;52.30;;;;;;5090563;28;20250;-72
2022/05/02 12:05:18;;;;;;;5.38;3.55;;;19.00;52.20;;;;;;5075210;28;20297;-74
2022/05/02 12:07:54;;;;;;;6.43;3.45;;;19.00;52.00;;;;;;5092391;28;20169;-72
2022/05/02 12:10:21;;;;;;;4.38;3.40;;;19.00;51.90;;;;;;5090960;28;20197;-73
2022/05/02 12:12:50;;;;;;;3.55;3.17;;;19.00;51.80;;;;;;5091160;28;20181;-73
2022/05/02 12:15:16;;;;;;;3.90;3.50;;;19.00;51.80;;;;;;5091807;28;20201;-72
2022/05/02 12:17:56;;;;;;;3.35;3.00;;;19.00;51.90;;;;;;5092251;28;20508;-74
2022/05/02 12:20:58;;;;;;;3.45;3.15;;;19.10;51.90;;;;;;5092684;28;20252;-73
2022/05/02 12:23:26;;;;;;;3.83;3.53;;;19.10;51.70;;;;;;5091773;28;20177;-73
2022/05/02 12:25:54;;;;;;;3.25;2.95;;;19.20;51.50;;;;;;5090718;28;20188;-73
2022/05/02 12:28:38;;;;;;;3.97;3.30;;;19.20;51.40;;;;;;5092347;28;20227;-73
2022/05/02 12:31:05;;;;;;;3.65;3.30;;;19.20;51.30;;;;;;5090366;28;20196;-75
2022/05/02 12:33:31;;;;;;;3.40;3.10;;;19.30;51.20;;;;;;5091165;28;20174;-74
2022/05/02 12:35:58;;;;;;;3.60;3.33;;;19.30;51.10;;;;;;5090403;28;20177;-77
2022/05/02 12:38:25;;;;;;;4.10;3.40;;;19.40;51.10;;;;;;5089995;28;20595;-74
2022/05/02 12:40:52;;;;;;;3.30;3.00;;;19.40;51.00;;;;;;5091875;28;20335;-75
2022/05/02 12:43:43;;;;;;;3.17;2.78;;;19.40;50.80;;;;;;5091821;28;20244;-73
2022/05/02 12:46:08;;;;;;;3.17;2.88;;;19.50;50.80;;;;;;5084690;28;20189;-76
2022/05/02 12:48:37;;;;;;;3.78;2.92;;;19.50;50.70;;;;;;5074161;28;20162;-73
2022/05/02 12:51:02;;;;;;;3.38;3.15;;;19.50;50.70;;;;;;5091300;28;20206;-75
2022/05/02 12:56:14;;;;;;;3.30;3.00;;;19.60;50.50;;;;;;5091688;28;20185;-76
2022/05/02 13:01:43;;;;;;;3.15;2.90;;;19.70;50.40;;;;;;5091583;28;20181;-74
2022/05/02 13:04:14;;;;;;;4.80;3.38;;;19.60;50.40;;;;;;5091674;28;20557;-75
2022/05/02 13:06:40;;;;;;;4.55;3.10;;;19.70;50.30;;;;;;5090611;28;20253;-75
2022/05/02 13:09:12;;;;;;;7.68;6.28;;;19.70;50.10;;;;;;5090455;28;20300;-74
2022/05/02 13:11:38;;;;;;;8.20;6.53;;;19.70;50.00;;;;;;5090577;28;20522;-73
2022/05/02 13:14:03;;;;;;;11.27;8.18;;;19.50;50.10;;;;;;5091719;28;20231;-73
2022/05/02 13:16:30;;;;;;;8.80;7.95;;;19.50;50.00;;;;;;5091648;28;20181;-74
2022/05/02 13:18:58;;;;;;;9.65;8.13;;;19.70;50.00;;;;;;5090492;28;20227;-75
2022/05/02 13:21:24;;;;;;;8.95;7.97;;;19.70;49.80;;;;;;5091778;28;20560;-73
2022/05/02 13:23:51;;;;;;;9.18;8.27;;;19.70;49.80;;;;;;5091403;28;20668;-75
2022/05/02 13:26:38;;;;;;;9.48;8.50;;;19.70;49.70;;;;;;5089587;28;20242;-75
2022/05/02 13:29:30;;;;;;;9.27;8.35;;;19.80;49.70;;;;;;5090452;28;20460;-75
2022/05/02 13:32:02;;;;;;;9.43;8.60;;;19.80;49.60;;;;;;5091273;28;20514;-73
2022/05/02 13:34:31;;;;;;;8.75;7.82;;;19.80;49.60;;;;;;5090942;28;20205;-74
2022/05/02 13:37:33;;;;;;;8.77;7.88;;;19.60;49.80;;;;;;5091496;28;20170;-74
2022/05/02 13:40:02;;;;;;;8.07;7.30;;;19.70;49.90;;;;;;5090932;28;20165;-72
2022/05/02 13:42:57;;;;;;;8.57;7.78;;;19.70;49.80;;;;;;5091525;28;20227;-75